sensor_id;sensor_type;location;lat;lon;timestamp;pressure;altitude;pressure_sealevel;temperature;humidity
64544;BME280;50936;51.660;5.616;2022-12-08T00:01:27;100748.44;;;2.96;100.00
64544;BME280;50936;51.660;5.616;2022-12-08T00:04:00;100749.38;;;2.95;100.00
64544;BME280;50936;51.660;5.616;2022-12-08T00:06:41;100739.69;;;2.93;100.00
64544;BME280;50936;51.660;5.616;2022-12-08T00:09:38;100740.56;;;2.93;100.00
64544;BME280;50936;51.660;5.616;2022-12-08T00:12:11;100737.91;;;2.93;100.00
64544;BME280;50936;51.660;5.616;2022-12-08T00:14:45;100740.56;;;2.93;100.00
64544;BME280;50936;51.660;5.616;2022-12-08T00:17:15;100738.81;;;2.92;100.00
64544;BME280;50936;51.660;5.616;2022-12-08T00:19:43;100729.91;;;2.93;100.00
64544;BME280;50936;51.660;5.616;2022-12-08T00:22:11;100728.03;;;2.95;100.00
64544;BME280;50936;51.660;5.616;2022-12-08T00:24:39;100730.56;;;2.98;100.00
64544;BME280;50936;51.660;5.616;2022-12-08T00:27:07;100717.06;;;3.03;100.00
64544;BME280;50936;51.660;5.616;2022-12-08T00:29:36;100716.00;;;3.07;100.00
64544;BME280;50936;51.660;5.616;2022-12-08T00:32:04;100707.06;;;3.08;100.00
64544;BME280;50936;51.660;5.616;2022-12-08T00:34:32;100706.06;;;3.11;100.00
64544;BME280;50936;51.660;5.616;2022-12-08T00:36:59;100706.06;;;3.11;100.00
64544;BME280;50936;51.660;5.616;2022-12-08T00:39:26;100704.19;;;3.13;100.00
64544;BME280;50936;51.660;5.616;2022-12-08T00:41:53;100701.53;;;3.13;100.00
64544;BME280;50936;51.660;5.616;2022-12-08T00:44:43;100694.38;;;3.13;100.00
64544;BME280;50936;51.660;5.616;2022-12-08T00:47:12;100695.38;;;3.11;100.00
64544;BME280;50936;51.660;5.616;2022-12-08T00:49:39;100699.81;;;3.12;100.00
64544;BME280;50936;51.660;5.616;2022-12-08T00:52:06;100697.00;;;3.15;100.00
64544;BME280;50936;51.660;5.616;2022-12-08T00:54:33;100691.66;;;3.15;100.00
64544;BME280;50936;51.660;5.616;2022-12-08T00:57:01;100683.66;;;3.15;100.00
64544;BME280;50936;51.660;5.616;2022-12-08T00:59:28;100680.97;;;3.15;100.00
64544;BME280;50936;51.660;5.616;2022-12-08T01:01:54;100680.13;;;3.14;100.00
64544;BME280;50936;51.660;5.616;2022-12-08T01:04:22;100682.84;;;3.13;100.00
64544;BME280;50936;51.660;5.616;2022-12-08T01:06:50;100683.69;;;3.13;100.00
64544;BME280;50936;51.660;5.616;2022-12-08T01:09:17;100684.72;;;3.11;100.00
64544;BME280;50936;51.660;5.616;2022-12-08T01:11:44;100684.72;;;3.11;100.00
64544;BME280;50936;51.660;5.616;2022-12-08T01:14:12;100676.59;;;3.14;100.00
64544;BME280;50936;51.660;5.616;2022-12-08T01:16:39;100675.53;;;3.18;100.00
64544;BME280;50936;51.660;5.616;2022-12-08T01:19:09;100679.00;;;3.20;100.00
64544;BME280;50936;51.660;5.616;2022-12-08T01:21:38;100682.63;;;3.19;100.00
64544;BME280;50936;51.660;5.616;2022-12-08T01:24:08;100677.28;;;3.19;100.00
64544;BME280;50936;51.660;5.616;2022-12-08T01:26:37;100678.06;;;3.21;100.00
64544;BME280;50936;51.660;5.616;2022-12-08T01:29:04;100671.94;;;3.19;100.00
64544;BME280;50936;51.660;5.616;2022-12-08T01:31:31;100674.59;;;3.19;100.00
64544;BME280;50936;51.660;5.616;2022-12-08T01:33:58;100675.53;;;3.18;100.00
64544;BME280;50936;51.660;5.616;2022-12-08T01:36:27;100675.53;;;3.18;100.00
64544;BME280;50936;51.660;5.616;2022-12-08T01:38:58;100679.25;;;3.14;100.00
64544;BME280;50936;51.660;5.616;2022-12-08T01:41:29;100668.53;;;3.15;100.00
64544;BME280;50936;51.660;5.616;2022-12-08T01:46:44;100673.03;;;3.13;100.00
64544;BME280;50936;51.660;5.616;2022-12-08T01:54:36;100651.81;;;3.10;100.00
64544;BME280;50936;51.660;5.616;2022-12-08T01:57:11;100645.63;;;3.10;100.00
64544;BME280;50936;51.660;5.616;2022-12-08T01:59:46;100650.13;;;3.07;100.00
64544;BME280;50936;51.660;5.616;2022-12-08T02:02:16;100643.88;;;3.08;100.00
64544;BME280;50936;51.660;5.616;2022-12-08T02:04:43;100647.47;;;3.07;100.00
64544;BME280;50936;51.660;5.616;2022-12-08T02:07:11;100637.75;;;3.06;100.00
64544;BME280;50936;51.660;5.616;2022-12-08T02:09:41;100640.41;;;3.06;100.00
64544;BME280;50936;51.660;5.616;2022-12-08T02:12:10;100635.06;;;3.06;100.00
64544;BME280;50936;51.660;5.616;2022-12-08T02:14:37;100636.78;;;3.07;100.00
64544;BME280;50936;51.660;5.616;2022-12-08T02:23:00;100621.72;;;3.06;100.00
64544;BME280;50936;51.660;5.616;2022-12-08T02:29:11;100615.59;;;3.04;100.00
64544;BME280;50936;51.660;5.616;2022-12-08T02:35:02;100610.09;;;3.07;100.00
64544;BME280;50936;51.660;5.616;2022-12-08T02:40:43;100603.91;;;3.07;100.00
64544;BME280;50936;51.660;5.616;2022-12-08T02:43:40;100599.44;;;3.07;100.00
64544;BME280;50936;51.660;5.616;2022-12-08T02:46:16;100592.38;;;3.06;100.00
64544;BME280;50936;51.660;5.616;2022-12-08T02:48:49;100589.66;;;3.08;100.00
64544;BME280;50936;51.660;5.616;2022-12-08T02:51:18;100595.84;;;3.08;100.00
64544;BME280;50936;51.660;5.616;2022-12-08T02:53:46;100585.97;;;3.11;100.00
64544;BME280;50936;51.660;5.616;2022-12-08T02:59:39;100579.84;;;3.08;100.00
64544;BME280;50936;51.660;5.616;2022-12-08T03:07:46;100576.25;;;3.10;100.00
64544;BME280;50936;51.660;5.616;2022-12-08T03:10:36;100573.59;;;3.10;100.00
64544;BME280;50936;51.660;5.616;2022-12-08T03:13:20;100577.22;;;3.07;100.00
64544;BME280;50936;51.660;5.616;2022-12-08T03:15:55;100583.44;;;3.07;100.00
64544;BME280;50936;51.660;5.616;2022-12-08T03:18:27;100580.75;;;3.07;100.00
64544;BME280;50936;51.660;5.616;2022-12-08T03:20:59;100587.03;;;3.06;100.00
64544;BME280;50936;51.660;5.616;2022-12-08T03:23:26;100581.72;;;3.06;100.00
64544;BME280;50936;51.660;5.616;2022-12-08T03:25:59;100579.16;;;3.03;100.00
64544;BME280;50936;51.660;5.616;2022-12-08T03:28:34;100568.50;;;3.03;100.00
64544;BME280;50936;51.660;5.616;2022-12-08T03:31:04;100561.44;;;3.02;100.00
64544;BME280;50936;51.660;5.616;2022-12-08T03:33:37;100553.56;;;2.99;100.00
64544;BME280;50936;51.660;5.616;2022-12-08T03:36:08;100555.28;;;3.00;100.00
64544;BME280;50936;51.660;5.616;2022-12-08T03:38:44;100553.66;;;2.96;100.00
64544;BME280;50936;51.660;5.616;2022-12-08T03:41:12;100548.50;;;2.93;100.00
64544;BME280;50936;51.660;5.616;2022-12-08T03:43:51;100542.25;;;2.93;100.00
64544;BME280;50936;51.660;5.616;2022-12-08T03:46:22;100533.47;;;2.91;100.00
64544;BME280;50936;51.660;5.616;2022-12-08T03:48:49;100534.31;;;2.91;100.00
64544;BME280;50936;51.660;5.616;2022-12-08T03:51:17;100530.72;;;2.92;100.00
64544;BME280;50936;51.660;5.616;2022-12-08T03:53:45;100539.53;;;2.94;100.00
64544;BME280;50936;51.660;5.616;2022-12-08T03:56:23;100531.41;;;2.97;100.00
64544;BME280;50936;51.660;5.616;2022-12-08T03:58:55;100532.22;;;2.99;100.00
64544;BME280;50936;51.660;5.616;2022-12-08T04:01:22;100533.81;;;3.03;100.00
64544;BME280;50936;51.660;5.616;2022-12-08T04:03:49;100530.22;;;3.04;100.00
64544;BME280;50936;51.660;5.616;2022-12-08T04:06:17;100519.53;;;3.04;100.00
64544;BME280;50936;51.660;5.616;2022-12-08T04:08:45;100528.34;;;3.06;100.00
64544;BME280;50936;51.660;5.616;2022-12-08T04:11:13;100522.88;;;3.10;100.00
64544;BME280;50936;51.660;5.616;2022-12-08T04:13:40;100517.44;;;3.11;100.00
64544;BME280;50936;51.660;5.616;2022-12-08T04:16:14;100522.59;;;3.16;100.00
64544;BME280;50936;51.660;5.616;2022-12-08T04:18:43;100499.38;;;3.18;100.00
64544;BME280;50936;51.660;5.616;2022-12-08T04:21:10;100512.72;;;3.18;100.00
64544;BME280;50936;51.660;5.616;2022-12-08T04:23:37;100515.38;;;3.18;100.00
64544;BME280;50936;51.660;5.616;2022-12-08T04:26:04;100510.06;;;3.18;100.00
64544;BME280;50936;51.660;5.616;2022-12-08T04:28:31;100513.63;;;3.17;100.00
64544;BME280;50936;51.660;5.616;2022-12-08T04:30:59;100506.59;;;3.16;100.00
64544;BME280;50936;51.660;5.616;2022-12-08T04:33:26;100501.25;;;3.16;100.00
64544;BME280;50936;51.660;5.616;2022-12-08T04:35:53;100505.63;;;3.17;100.00
64544;BME280;50936;51.660;5.616;2022-12-08T04:38:20;100507.44;;;3.16;100.00
64544;BME280;50936;51.660;5.616;2022-12-08T04:40:47;100506.59;;;3.16;100.00
64544;BME280;50936;51.660;5.616;2022-12-08T04:43:14;100508.19;;;3.20;100.00
64544;BME280;50936;51.660;5.616;2022-12-08T04:45:41;100504.59;;;3.21;100.00
64544;BME280;50936;51.660;5.616;2022-12-08T04:48:09;100501.84;;;3.22;100.00
64544;BME280;50936;51.660;5.616;2022-12-08T04:50:40;100499.25;;;3.21;100.00
64544;BME280;50936;51.660;5.616;2022-12-08T04:53:09;100502.91;;;3.18;100.00
64544;BME280;50936;51.660;5.616;2022-12-08T04:55:38;100502.03;;;3.18;100.00
64544;BME280;50936;51.660;5.616;2022-12-08T04:58:11;100511.81;;;3.19;100.00
64544;BME280;50936;51.660;5.616;2022-12-08T05:00:42;100506.47;;;3.19;100.00
64544;BME280;50936;51.660;5.616;2022-12-08T05:03:10;100506.47;;;3.19;100.00
64544;BME280;50936;51.660;5.616;2022-12-08T05:05:37;100499.38;;;3.18;100.00
64544;BME280;50936;51.660;5.616;2022-12-08T05:08:04;100494.16;;;3.15;100.00
64544;BME280;50936;51.660;5.616;2022-12-08T05:10:32;100499.50;;;3.15;100.00
64544;BME280;50936;51.660;5.616;2022-12-08T05:12:59;100499.50;;;3.15;100.00
64544;BME280;50936;51.660;5.616;2022-12-08T05:15:26;100487.78;;;3.19;100.00
64544;BME280;50936;51.660;5.616;2022-12-08T05:17:53;100492.16;;;3.20;100.00
64544;BME280;50936;51.660;5.616;2022-12-08T05:20:20;100495.78;;;3.19;100.00
64544;BME280;50936;51.660;5.616;2022-12-08T05:22:47;100492.16;;;3.20;100.00
64544;BME280;50936;51.660;5.616;2022-12-08T05:25:14;100497.50;;;3.20;100.00
64544;BME280;50936;51.660;5.616;2022-12-08T05:27:41;100485.13;;;3.19;100.00
64544;BME280;50936;51.660;5.616;2022-12-08T05:30:09;100499.38;;;3.18;100.00
64544;BME280;50936;51.660;5.616;2022-12-08T05:32:35;100496.72;;;3.18;100.00
64544;BME280;50936;51.660;5.616;2022-12-08T05:35:02;100495.91;;;3.16;100.00
64544;BME280;50936;51.660;5.616;2022-12-08T05:37:29;100484.50;;;3.12;100.00
64544;BME280;50936;51.660;5.616;2022-12-08T05:39:56;100491.72;;;3.10;100.00
64544;BME280;50936;51.660;5.616;2022-12-08T05:42:23;100485.78;;;3.03;100.00
64544;BME280;50936;51.660;5.616;2022-12-08T05:44:51;100474.44;;;2.98;100.00
64544;BME280;50936;51.660;5.616;2022-12-08T05:47:17;100484.47;;;2.93;100.00
64544;BME280;50936;51.660;5.616;2022-12-08T05:49:44;100472.22;;;2.87;100.00
64544;BME280;50936;51.660;5.616;2022-12-08T05:52:11;100469.84;;;2.81;100.00
64544;BME280;50936;51.660;5.616;2022-12-08T05:54:38;100466.31;;;2.81;100.00
64544;BME280;50936;51.660;5.616;2022-12-08T05:57:05;100464.63;;;2.78;100.00
64544;BME280;50936;51.660;5.616;2022-12-08T05:59:32;100467.38;;;2.77;100.00
64544;BME280;50936;51.660;5.616;2022-12-08T06:01:59;100476.25;;;2.77;100.00
64544;BME280;50936;51.660;5.616;2022-12-08T06:04:26;100475.38;;;2.77;100.00
64544;BME280;50936;51.660;5.616;2022-12-08T06:06:52;100470.97;;;2.76;100.00
64544;BME280;50936;51.660;5.616;2022-12-08T06:09:19;100474.50;;;2.76;100.00
64544;BME280;50936;51.660;5.616;2022-12-08T06:11:47;100467.28;;;2.78;100.00
64544;BME280;50936;51.660;5.616;2022-12-08T06:14:14;100461.09;;;2.78;100.00
64544;BME280;50936;51.660;5.616;2022-12-08T06:16:41;100460.19;;;2.79;100.00
64544;BME280;50936;51.660;5.616;2022-12-08T06:19:08;100470.84;;;2.79;100.00
64544;BME280;50936;51.660;5.616;2022-12-08T06:21:34;100470.84;;;2.79;100.00
64544;BME280;50936;51.660;5.616;2022-12-08T06:24:01;100468.03;;;2.82;100.00
64544;BME280;50936;51.660;5.616;2022-12-08T06:26:28;100470.56;;;2.85;100.00
64544;BME280;50936;51.660;5.616;2022-12-08T06:28:55;100463.25;;;2.90;100.00
64544;BME280;50936;51.660;5.616;2022-12-08T06:31:23;100457.97;;;2.88;100.00
64544;BME280;50936;51.660;5.616;2022-12-08T06:33:53;100459.78;;;2.88;100.00
64544;BME280;50936;51.660;5.616;2022-12-08T06:36:23;100454.50;;;2.86;100.00
64544;BME280;50936;51.660;5.616;2022-12-08T06:38:52;100448.50;;;2.81;100.00
64544;BME280;50936;51.660;5.616;2022-12-08T06:41:18;100448.50;;;2.81;100.00
64544;BME280;50936;51.660;5.616;2022-12-08T06:43:45;100452.13;;;2.80;100.00
64544;BME280;50936;51.660;5.616;2022-12-08T06:46:15;100451.09;;;2.83;100.00
64544;BME280;50936;51.660;5.616;2022-12-08T06:48:44;100454.56;;;2.85;100.00
64544;BME280;50936;51.660;5.616;2022-12-08T06:51:14;100459.91;;;2.85;100.00
64544;BME280;50936;51.660;5.616;2022-12-08T06:53:44;100452.81;;;2.84;100.00
64544;BME280;50936;51.660;5.616;2022-12-08T06:56:13;100461.66;;;2.86;100.00
64544;BME280;50936;51.660;5.616;2022-12-08T06:58:41;100458.03;;;2.87;100.00
64544;BME280;50936;51.660;5.616;2022-12-08T07:01:14;100455.38;;;2.87;100.00
64544;BME280;50936;51.660;5.616;2022-12-08T07:03:41;100450.97;;;2.86;100.00
64544;BME280;50936;51.660;5.616;2022-12-08T07:06:14;100446.56;;;2.85;100.00
64544;BME280;50936;51.660;5.616;2022-12-08T07:08:43;100446.56;;;2.85;100.00
64544;BME280;50936;51.660;5.616;2022-12-08T07:11:10;100450.09;;;2.85;100.00
64544;BME280;50936;51.660;5.616;2022-12-08T07:13:46;100447.38;;;2.87;100.00
64544;BME280;50936;51.660;5.616;2022-12-08T07:16:13;100457.19;;;2.86;100.00
64544;BME280;50936;51.660;5.616;2022-12-08T07:18:40;100454.44;;;2.88;100.00
64544;BME280;50936;51.660;5.616;2022-12-08T07:21:10;100454.44;;;2.88;100.00
64544;BME280;50936;51.660;5.616;2022-12-08T07:23:38;100458.03;;;2.87;100.00
64544;BME280;50936;51.660;5.616;2022-12-08T07:26:07;100456.31;;;2.86;100.00
64544;BME280;50936;51.660;5.616;2022-12-08T07:28:38;100465.13;;;2.88;100.00
64544;BME280;50936;51.660;5.616;2022-12-08T07:31:07;100470.44;;;2.88;100.00
64544;BME280;50936;51.660;5.616;2022-12-08T07:33:42;100465.13;;;2.88;100.00
64544;BME280;50936;51.660;5.616;2022-12-08T07:36:10;100461.38;;;2.92;100.00
64544;BME280;50936;51.660;5.616;2022-12-08T07:38:37;100464.84;;;2.94;100.00
64544;BME280;50936;51.660;5.616;2022-12-08T07:41:04;100461.25;;;2.95;100.00
64544;BME280;50936;51.660;5.616;2022-12-08T07:43:36;100461.25;;;2.95;100.00
64544;BME280;50936;51.660;5.616;2022-12-08T07:46:03;100459.38;;;2.97;100.00
64544;BME280;50936;51.660;5.616;2022-12-08T07:48:30;100460.22;;;2.98;100.00
64544;BME280;50936;51.660;5.616;2022-12-08T07:51:00;100454.91;;;2.98;100.00
64544;BME280;50936;51.660;5.616;2022-12-08T07:53:29;100447.69;;;3.00;100.00
64544;BME280;50936;51.660;5.616;2022-12-08T07:55:56;100455.63;;;3.01;100.00
64544;BME280;50936;51.660;5.616;2022-12-08T07:58:24;100452.97;;;3.01;100.00
64544;BME280;50936;51.660;5.616;2022-12-08T08:00:51;100455.50;;;3.04;100.00
64544;BME280;50936;51.660;5.616;2022-12-08T08:03:19;100455.34;;;3.07;100.00
64544;BME280;50936;51.660;5.616;2022-12-08T08:05:47;100465.03;;;3.10;100.00
64544;BME280;50936;51.660;5.616;2022-12-08T08:08:16;100458.84;;;3.10;100.00
64544;BME280;50936;51.660;5.616;2022-12-08T08:10:44;100463.28;;;3.09;100.00
64544;BME280;50936;51.660;5.616;2022-12-08T08:13:12;100466.03;;;3.07;100.00
64544;BME280;50936;51.660;5.616;2022-12-08T08:15:39;100461.69;;;3.05;100.00
64544;BME280;50936;51.660;5.616;2022-12-08T08:18:06;100455.50;;;3.04;100.00
64544;BME280;50936;51.660;5.616;2022-12-08T08:20:33;100470.78;;;3.01;100.00
64544;BME280;50936;51.660;5.616;2022-12-08T08:23:00;100459.22;;;3.00;100.00
64544;BME280;50936;51.660;5.616;2022-12-08T08:25:27;100467.31;;;2.99;100.00
64544;BME280;50936;51.660;5.616;2022-12-08T08:27:54;100476.38;;;2.95;100.00
64544;BME280;50936;51.660;5.616;2022-12-08T08:30:21;100472.03;;;2.92;100.00
64544;BME280;50936;51.660;5.616;2022-12-08T08:32:48;100466.72;;;2.92;100.00
64544;BME280;50936;51.660;5.616;2022-12-08T08:35:16;100471.25;;;2.90;100.00
64544;BME280;50936;51.660;5.616;2022-12-08T08:37:43;100473.91;;;2.90;100.00
64544;BME280;50936;51.660;5.616;2022-12-08T08:40:15;100475.63;;;2.91;100.00
64544;BME280;50936;51.660;5.616;2022-12-08T08:42:43;100480.91;;;2.93;100.00
64544;BME280;50936;51.660;5.616;2022-12-08T08:45:10;100480.84;;;2.94;100.00
64544;BME280;50936;51.660;5.616;2022-12-08T08:47:36;100477.38;;;2.92;100.00
64544;BME280;50936;51.660;5.616;2022-12-08T08:50:04;100472.03;;;2.92;100.00
64544;BME280;50936;51.660;5.616;2022-12-08T08:52:32;100473.78;;;2.93;100.00
64544;BME280;50936;51.660;5.616;2022-12-08T08:54:59;100479.25;;;2.90;100.00
64544;BME280;50936;51.660;5.616;2022-12-08T08:57:25;100480.31;;;2.86;100.00
64544;BME280;50936;51.660;5.616;2022-12-08T08:59:52;100478.91;;;2.77;100.00
64544;BME280;50936;51.660;5.616;2022-12-08T09:02:20;100481.91;;;2.69;100.00
64544;BME280;50936;51.660;5.616;2022-12-08T09:04:47;100482.94;;;2.65;100.00
64544;BME280;50936;51.660;5.616;2022-12-08T09:07:15;100475.91;;;2.64;100.00
64544;BME280;50936;51.660;5.616;2022-12-08T09:09:42;100471.63;;;2.60;100.00
64544;BME280;50936;51.660;5.616;2022-12-08T09:12:09;100480.56;;;2.59;100.00
64544;BME280;50936;51.660;5.616;2022-12-08T09:14:36;100476.09;;;2.60;100.00
64544;BME280;50936;51.660;5.616;2022-12-08T09:17:04;100484.13;;;2.58;100.00
64544;BME280;50936;51.660;5.616;2022-12-08T09:19:31;100479.69;;;2.59;100.00
64544;BME280;50936;51.660;5.616;2022-12-08T09:21:58;100482.44;;;2.57;100.00
64544;BME280;50936;51.660;5.616;2022-12-08T09:24:25;100481.56;;;2.57;100.00
64544;BME280;50936;51.660;5.616;2022-12-08T09:26:52;100480.69;;;2.56;100.00
64544;BME280;50936;51.660;5.616;2022-12-08T09:29:19;100483.22;;;2.59;100.00
64544;BME280;50936;51.660;5.616;2022-12-08T09:31:45;100471.63;;;2.60;100.00
64544;BME280;50936;51.660;5.616;2022-12-08T09:34:13;100475.91;;;2.64;100.00
64544;BME280;50936;51.660;5.616;2022-12-08T09:36:41;100481.28;;;2.63;100.00
64544;BME280;50936;51.660;5.616;2022-12-08T09:39:08;100472.50;;;2.61;100.00
64544;BME280;50936;51.660;5.616;2022-12-08T09:41:36;100469.03;;;2.59;100.00
64544;BME280;50936;51.660;5.616;2022-12-08T09:44:45;100478.81;;;2.58;100.00
64544;BME280;50936;51.660;5.616;2022-12-08T09:47:47;100465.47;;;2.58;100.00
64544;BME280;50936;51.660;5.616;2022-12-08T09:50:29;100465.47;;;2.58;100.00
64544;BME280;50936;51.660;5.616;2022-12-08T09:53:08;100468.16;;;2.58;100.00
64544;BME280;50936;51.660;5.616;2022-12-08T09:55:45;100475.16;;;2.61;100.00
64544;BME280;50936;51.660;5.616;2022-12-08T09:58:42;100468.75;;;2.65;100.00
64544;BME280;50936;51.660;5.616;2022-12-08T10:01:32;100477.56;;;2.67;100.00
64544;BME280;50936;51.660;5.616;2022-12-08T10:04:33;100471.97;;;2.73;100.00
64544;BME280;50936;51.660;5.616;2022-12-08T10:07:20;100470.84;;;2.79;100.00
64544;BME280;50936;51.660;5.616;2022-12-08T10:10:03;100465.25;;;2.85;100.00
64544;BME280;50936;51.660;5.616;2022-12-08T10:16:12;100462.44;;;2.88;100.00
64544;BME280;50936;51.660;5.616;2022-12-08T10:19:22;100454.44;;;2.88;100.00
64544;BME280;50936;51.660;5.616;2022-12-08T10:21:52;100456.03;;;2.92;100.00
64544;BME280;50936;51.660;5.616;2022-12-08T10:26:49;100453.75;;;3.03;100.00
64544;BME280;50936;51.660;5.616;2022-12-08T10:29:16;100445.69;;;3.05;100.00
64544;BME280;50936;51.660;5.616;2022-12-08T10:31:42;100441.09;;;3.08;100.00
64544;BME280;50936;51.660;5.616;2022-12-08T10:34:19;100443.63;;;3.12;100.00
64544;BME280;50936;51.660;5.616;2022-12-08T10:36:55;100443.47;;;3.15;100.00
64544;BME280;50936;51.660;5.616;2022-12-08T10:39:41;100446.13;;;3.15;100.00
64544;BME280;50936;51.660;5.616;2022-12-08T10:45:02;100433.88;;;3.11;100.00
64544;BME280;50936;51.660;5.616;2022-12-08T10:47:37;100435.75;;;3.08;100.00
64544;BME280;50936;51.660;5.616;2022-12-08T10:50:23;100439.09;;;3.14;100.00
64544;BME280;50936;51.660;5.616;2022-12-08T10:53:10;100439.88;;;3.16;100.00
64544;BME280;50936;51.660;5.616;2022-12-08T10:55:47;100441.53;;;3.18;100.00
64544;BME280;50936;51.660;5.616;2022-12-08T10:58:41;100437.06;;;3.19;100.00
64544;BME280;50936;51.660;5.616;2022-12-08T11:04:16;100434.06;;;3.26;100.00
64544;BME280;50936;51.660;5.616;2022-12-08T11:06:49;100434.00;;;3.28;100.00
64544;BME280;50936;51.660;5.616;2022-12-08T11:11:47;100429.56;;;3.27;100.00
64544;BME280;50936;51.660;5.616;2022-12-08T11:14:25;100424.22;;;3.27;100.00
64544;BME280;50936;51.660;5.616;2022-12-08T11:17:04;100417.03;;;3.29;100.00
64544;BME280;50936;51.660;5.616;2022-12-08T11:19:37;100422.22;;;3.32;100.00
64544;BME280;50936;51.660;5.616;2022-12-08T11:22:30;100415.13;;;3.31;100.00
64544;BME280;50936;51.660;5.616;2022-12-08T11:27:46;100407.50;;;3.23;100.00
64544;BME280;50936;51.660;5.616;2022-12-08T11:30:18;100406.63;;;3.23;100.00
64544;BME280;50936;51.660;5.616;2022-12-08T11:32:55;100408.34;;;3.24;100.00
64544;BME280;50936;51.660;5.616;2022-12-08T11:35:28;100410.94;;;3.25;100.00
64544;BME280;50936;51.660;5.616;2022-12-08T11:38:11;100399.19;;;3.30;100.00
64544;BME280;50936;51.660;5.616;2022-12-08T11:40:51;100406.16;;;3.34;100.00
64544;BME280;50936;51.660;5.616;2022-12-08T11:46:02;100402.31;;;3.39;100.00
64544;BME280;50936;51.660;5.616;2022-12-08T11:48:58;100398.69;;;3.40;100.00
64544;BME280;50936;51.660;5.616;2022-12-08T11:51:37;100398.69;;;3.40;100.00
64544;BME280;50936;51.660;5.616;2022-12-08T11:57:12;100396.53;;;3.49;100.00
64544;BME280;50936;51.660;5.616;2022-12-08T11:59:49;100392.78;;;3.53;100.00
64544;BME280;50936;51.660;5.616;2022-12-08T12:02:23;100397.09;;;3.55;100.00
64544;BME280;50936;51.660;5.616;2022-12-08T12:11:34;100385.44;;;3.58;100.00
64544;BME280;50936;51.660;5.616;2022-12-08T12:14:39;100388.31;;;3.53;100.00
64544;BME280;50936;51.660;5.616;2022-12-08T12:17:48;100382.88;;;3.55;100.00
64544;BME280;50936;51.660;5.616;2022-12-08T12:20:34;100380.09;;;3.58;100.00
64544;BME280;50936;51.660;5.616;2022-12-08T12:23:38;100379.00;;;3.62;100.00
64544;BME280;50936;51.660;5.616;2022-12-08T12:26:28;100382.53;;;3.62;100.00
64544;BME280;50936;51.660;5.616;2022-12-08T12:29:31;100378.34;;;3.57;100.00
64544;BME280;50936;51.660;5.616;2022-12-08T12:32:06;100375.31;;;3.45;100.00
64544;BME280;50936;51.660;5.616;2022-12-08T12:34:56;100375.63;;;3.39;100.00
64544;BME280;50936;51.660;5.616;2022-12-08T12:37:37;100366.97;;;3.34;100.00
64544;BME280;50936;51.660;5.616;2022-12-08T12:40:22;100367.09;;;3.31;100.00
64544;BME280;50936;51.660;5.616;2022-12-08T12:45:23;100361.91;;;3.28;100.00
64544;BME280;50936;51.660;5.616;2022-12-08T12:58:43;100351.25;;;3.28;100.00
64544;BME280;50936;51.660;5.616;2022-12-08T13:04:26;100351.44;;;3.23;100.00
64544;BME280;50936;51.660;5.616;2022-12-08T13:06:47;100353.25;;;3.23;100.00
64544;BME280;50936;51.660;5.616;2022-12-08T13:09:20;100353.25;;;3.23;100.00
64544;BME280;50936;51.660;5.616;2022-12-08T13:11:55;100356.72;;;3.25;100.00
64544;BME280;50936;51.660;5.616;2022-12-08T13:14:28;100354.03;;;3.25;100.00
64544;BME280;50936;51.660;5.616;2022-12-08T13:16:59;100349.63;;;3.24;100.00
64544;BME280;50936;51.660;5.616;2022-12-08T13:19:30;100344.59;;;3.18;100.00
64544;BME280;50936;51.660;5.616;2022-12-08T13:21:58;100342.06;;;3.15;100.00
64544;BME280;50936;51.660;5.616;2022-12-08T13:24:32;100336.72;;;3.15;100.00
64544;BME280;50936;51.660;5.616;2022-12-08T13:29:30;100333.44;;;3.10;100.00
64544;BME280;50936;51.660;5.616;2022-12-08T13:32:02;100327.13;;;3.11;100.00
64544;BME280;50936;51.660;5.616;2022-12-08T13:37:27;100323.38;;;3.15;100.00
64544;BME280;50936;51.660;5.616;2022-12-08T13:40:23;100312.44;;;3.21;100.00
64544;BME280;50936;51.660;5.616;2022-12-08T13:43:09;100323.84;;;3.24;100.00
64544;BME280;50936;51.660;5.616;2022-12-08T13:45:44;100318.31;;;3.27;100.00
64544;BME280;50936;51.660;5.616;2022-12-08T13:48:43;100326.25;;;3.29;100.00
64544;BME280;50936;51.660;5.616;2022-12-08T13:51:43;100321.88;;;3.28;100.00
64544;BME280;50936;51.660;5.616;2022-12-08T13:54:38;100320.06;;;3.28;100.00
64544;BME280;50936;51.660;5.616;2022-12-08T13:57:31;100328.16;;;3.27;100.00
64544;BME280;50936;51.660;5.616;2022-12-08T14:00:05;100328.16;;;3.27;100.00
64544;BME280;50936;51.660;5.616;2022-12-08T14:02:49;100319.66;;;3.19;100.00
64544;BME280;50936;51.660;5.616;2022-12-08T14:05:19;100320.66;;;3.16;100.00
64544;BME280;50936;51.660;5.616;2022-12-08T14:08:28;100316.16;;;3.17;100.00
64544;BME280;50936;51.660;5.616;2022-12-08T14:11:27;100318.75;;;3.18;100.00
64544;BME280;50936;51.660;5.616;2022-12-08T14:14:06;100320.44;;;3.21;100.00
64544;BME280;50936;51.660;5.616;2022-12-08T14:16:41;100315.91;;;3.23;100.00
64544;BME280;50936;51.660;5.616;2022-12-08T14:19:20;100315.91;;;3.23;100.00
64544;BME280;50936;51.660;5.616;2022-12-08T14:22:08;100332.03;;;3.20;100.00
64544;BME280;50936;51.660;5.616;2022-12-08T14:24:39;100330.41;;;3.17;100.00
64544;BME280;50936;51.660;5.616;2022-12-08T14:27:14;100325.13;;;3.16;100.00
64544;BME280;50936;51.660;5.616;2022-12-08T14:29:57;100312.88;;;3.12;100.00
64544;BME280;50936;51.660;5.616;2022-12-08T14:37:47;100311.56;;;3.01;100.00
64544;BME280;50936;51.660;5.616;2022-12-08T14:40:39;100317.91;;;2.99;100.00
64544;BME280;50936;51.660;5.616;2022-12-08T14:53:52;100316.72;;;2.85;100.00
64544;BME280;50936;51.660;5.616;2022-12-08T14:56:45;100321.19;;;2.85;100.00
64544;BME280;50936;51.660;5.616;2022-12-08T14:59:33;100312.53;;;2.80;100.00